Time;durP1;ratioP1;P1;durP2;ratioP2;P2;SDS_P1;SDS_P2;PMS_P1;PMS_P2;Temp;Humidity;BMP_temperature;BMP_pressure;BME280_temperature;BME280_humidity;BME280_pressure;Samples;Min_cycle;Max_cycle;Signal;HPM_P1;HPM_P2
2023/05/09 00:01:30;;;;;;;62.70;23.52;;;;;;;16.04;90.87;100223.38;4945228;28;20496;-88
2023/05/09 00:03:58;;;;;;;59.78;24.73;;;;;;;16.03;90.58;100219.88;4964263;28;20415;-88
2023/05/09 00:06:26;;;;;;;56.05;25.17;;;;;;;16.01;90.81;100223.72;4931121;28;20102;-88
2023/05/09 00:08:54;;;;;;;52.20;23.67;;;;;;;16.03;90.87;100221.72;4915441;28;20113;-88
2023/05/09 00:11:23;;;;;;;59.60;25.23;;;;;;;16.03;91.08;100227.06;4918632;28;20451;-87
2023/05/09 00:13:50;;;;;;;48.80;24.05;;;;;;;16.02;91.00;100228.88;4944804;28;20054;-87
2023/05/09 00:16:19;;;;;;;52.15;24.88;;;;;;;16.02;90.86;100231.56;4949203;28;20114;-88
2023/05/09 00:18:46;;;;;;;56.10;25.35;;;;;;;16.02;90.97;100220.84;4950597;28;20047;-88
2023/05/09 00:21:13;;;;;;;51.78;23.10;;;;;;;16.01;91.05;100213.84;4930020;28;20521;-88
2023/05/09 00:23:40;;;;;;;50.97;24.63;;;;;;;16.00;90.80;100212.16;4932302;28;20048;-88
2023/05/09 00:26:06;;;;;;;59.00;25.08;;;;;;;16.00;90.92;100204.13;4933469;28;20086;-88
2023/05/09 00:28:34;;;;;;;50.47;23.92;;;;;;;15.98;91.01;100200.78;4945071;28;20046;-88
2023/05/09 00:31:00;;;;;;;51.03;23.17;;;;;;;15.99;90.71;100198.94;4953478;28;20744;-89
2023/05/09 00:33:27;;;;;;;51.15;23.42;;;;;;;15.98;90.99;100203.44;4935144;28;20672;-88
2023/05/09 00:35:54;;;;;;;56.08;24.75;;;;;;;15.97;90.75;100199.06;4945481;28;20491;-88
2023/05/09 00:38:22;;;;;;;56.00;25.10;;;;;;;15.97;90.68;100198.25;4917921;28;20051;-89
2023/05/09 00:40:48;;;;;;;56.28;25.23;;;;;;;15.98;90.86;100194.59;4930772;28;20046;-89
2023/05/09 00:43:15;;;;;;;52.88;23.88;;;;;;;15.98;90.74;100197.25;4932279;28;20047;-87
2023/05/09 00:45:43;;;;;;;54.20;25.15;;;;;;;15.97;90.67;100190.22;4932087;28;20074;-88
2023/05/09 00:48:10;;;;;;;54.88;24.15;;;;;;;15.96;90.63;100180.50;4953665;28;20525;-88
2023/05/09 00:50:36;;;;;;;54.22;24.55;;;;;;;15.94;90.72;100172.63;4904234;28;20384;-87
2023/05/09 00:53:04;;;;;;;55.40;25.83;;;;;;;15.95;90.80;100170.78;4935523;28;20142;-88
2023/05/09 00:55:31;;;;;;;52.88;24.58;;;;;;;15.95;90.71;100162.75;4947281;28;20043;-88
2023/05/09 00:57:57;;;;;;;58.28;24.98;;;;;;;15.92;90.71;100169.25;4945019;28;20055;-88
2023/05/09 01:00:24;;;;;;;51.80;22.27;;;;;;;15.91;90.64;100162.25;4948486;28;20042;-88
2023/05/09 01:02:53;;;;;;;51.90;24.30;;;;;;;15.93;90.66;100162.09;4931665;28;20046;-89
2023/05/09 01:05:24;;;;;;;54.78;24.55;;;;;;;15.91;90.55;100158.72;4961779;28;20122;-88
2023/05/09 01:07:57;;;;;;;57.47;24.92;;;;;;;15.88;90.77;100157.22;4919052;28;20129;-89
2023/05/09 01:10:51;;;;;;;53.50;22.90;;;;;;;15.82;90.83;100161.38;4946784;28;20086;-89
2023/05/09 01:13:29;;;;;;;59.10;24.30;;;;;;;15.81;90.96;100159.69;4944700;28;20043;-89
2023/05/09 01:16:14;;;;;;;53.55;23.42;;;;;;;15.75;90.63;100157.66;4933650;28;20130;-89
2023/05/09 01:19:30;;;;;;;47.63;22.45;;;;;;;15.71;91.03;100158.97;4931741;28;20769;-87
2023/05/09 01:21:58;;;;;;;54.50;24.17;;;;;;;15.79;90.77;100155.50;4911837;28;21126;-89
2023/05/09 01:24:55;;;;;;;53.55;23.77;;;;;;;15.72;90.56;100154.47;4935517;28;20074;-89
2023/05/09 01:27:43;;;;;;;52.47;24.13;;;;;;;15.67;90.88;100154.91;4926440;28;20135;-88
2023/05/09 01:30:12;;;;;;;51.88;23.42;;;;;;;15.76;90.81;100153.16;4915971;28;20138;-89
2023/05/09 01:32:41;;;;;;;56.75;23.25;;;;;;;15.77;90.48;100152.13;4945397;28;20053;-89
2023/05/09 01:35:12;;;;;;;60.72;23.10;;;;;;;15.76;90.46;100153.16;4948617;28;20054;-89
2023/05/09 01:37:42;;;;;;;57.90;23.17;;;;;;;15.76;90.92;100151.31;4935374;28;20043;-88
2023/05/09 01:40:16;;;;;;;48.58;22.88;;;;;;;15.74;90.81;100152.47;4947411;28;20142;-89
2023/05/09 01:42:48;;;;;;;53.67;23.65;;;;;;;15.75;90.77;100157.66;4932131;28;20058;-89
2023/05/09 01:45:16;;;;;;;62.42;23.02;;;;;;;15.78;91.11;100156.50;4969634;28;20419;-88
2023/05/09 01:47:43;;;;;;;59.83;24.30;;;;;;;15.80;91.24;100150.00;4933286;28;20074;-89
2023/05/09 01:50:11;;;;;;;54.67;24.92;;;;;;;15.81;91.19;100146.31;4932368;28;20115;-88
2023/05/09 01:52:39;;;;;;;60.25;26.23;;;;;;;15.82;91.50;100152.50;4969250;28;20146;-88
2023/05/09 01:55:07;;;;;;;46.95;23.95;;;;;;;15.82;91.48;100150.69;4947679;28;20396;-89
2023/05/09 01:57:34;;;;;;;57.08;23.98;;;;;;;15.83;91.51;100149.66;4938720;28;20566;-89
2023/05/09 02:00:02;;;;;;;55.13;25.42;;;;;;;15.84;91.75;100145.97;4915236;28;20050;-89
2023/05/09 02:02:39;;;;;;;58.30;24.90;;;;;;;15.83;91.73;100146.16;4949405;28;22198;-89
2023/05/09 02:05:08;;;;;;;52.47;23.92;;;;;;;15.82;91.63;100142.63;4950215;28;20122;-88
2023/05/09 02:07:35;;;;;;;54.42;24.45;;;;;;;15.82;91.59;100137.28;4914437;28;20039;-89
2023/05/09 02:10:03;;;;;;;48.75;24.30;;;;;;;15.81;91.74;100143.63;4950191;28;20046;-89
2023/05/09 02:12:30;;;;;;;53.78;23.38;;;;;;;15.81;91.88;100138.25;4905923;28;20062;-89
2023/05/09 02:14:57;;;;;;;48.63;23.55;;;;;;;15.84;92.03;100134.44;4964352;28;20510;-89
2023/05/09 02:17:24;;;;;;;50.20;23.77;;;;;;;15.82;91.99;100128.38;4930932;28;20067;-88
2023/05/09 02:19:51;;;;;;;55.30;24.27;;;;;;;15.82;92.15;100133.75;4967853;28;20130;-90
2023/05/09 02:22:18;;;;;;;49.92;23.00;;;;;;;15.81;92.08;100132.91;4933273;28;20494;-89
2023/05/09 02:24:45;;;;;;;50.88;23.65;;;;;;;15.83;92.26;100132.75;4933301;28;20492;-89
2023/05/09 02:27:11;;;;;;;61.60;23.48;;;;;;;15.83;92.16;100128.25;4947672;28;20062;-88
2023/05/09 02:29:46;;;;;;;53.28;24.33;;;;;;;15.80;92.06;100122.38;4931265;28;20522;-88
2023/05/09 02:32:16;;;;;;;60.85;24.45;;;;;;;15.84;92.04;100132.59;4930667;28;20131;-89
2023/05/09 02:34:45;;;;;;;60.83;25.50;;;;;;;15.83;91.99;100130.09;4948372;28;20045;-88
2023/05/09 02:37:12;;;;;;;57.47;24.67;;;;;;;15.83;92.14;100130.91;4960672;28;20747;-89
2023/05/09 02:39:39;;;;;;;58.25;25.77;;;;;;;15.81;92.20;100118.69;4936777;28;20049;-89
2023/05/09 02:42:08;;;;;;;58.15;24.27;;;;;;;15.80;92.07;100133.94;4946820;28;20121;-88
2023/05/09 02:44:36;;;;;;;57.90;25.83;;;;;;;15.78;92.19;100127.88;4947448;28;20046;-89
2023/05/09 02:47:03;;;;;;;49.42;23.35;;;;;;;15.79;92.22;100128.72;4926465;28;20062;-89
2023/05/09 02:49:30;;;;;;;53.70;23.38;;;;;;;15.78;92.36;100122.53;4951108;28;20039;-88
2023/05/09 02:52:00;;;;;;;48.75;23.17;;;;;;;15.76;92.24;100119.16;4931659;28;20142;-89
2023/05/09 02:54:27;;;;;;;49.50;23.23;;;;;;;15.75;92.08;100114.84;4969672;28;20130;-88
2023/05/09 02:56:54;;;;;;;57.13;25.65;;;;;;;15.77;92.24;100109.28;4912744;28;20065;-89
2023/05/09 02:59:21;;;;;;;54.33;25.13;;;;;;;15.76;92.41;100107.63;4915924;28;20047;-88
2023/05/09 03:01:48;;;;;;;60.65;24.77;;;;;;;15.75;92.19;100106.81;4939815;28;20055;-89
2023/05/09 03:04:16;;;;;;;52.25;24.40;;;;;;;15.75;92.29;100095.25;4935913;28;20062;-88
2023/05/09 03:06:43;;;;;;;55.38;23.08;;;;;;;15.73;92.37;100100.75;4930907;28;20046;-89
2023/05/09 03:09:11;;;;;;;51.72;22.98;;;;;;;15.73;92.52;100094.56;4964447;28;20046;-88
2023/05/09 03:11:38;;;;;;;48.92;23.33;;;;;;;15.73;92.40;100102.59;4948226;28;20047;-88
2023/05/09 03:14:07;;;;;;;52.97;24.23;;;;;;;15.73;92.48;100094.56;4948355;28;20044;-88
2023/05/09 03:16:34;;;;;;;62.80;25.75;;;;;;;15.72;92.54;100096.41;4945191;28;20100;-88
2023/05/09 03:19:02;;;;;;;67.30;26.35;;;;;;;15.72;92.69;100098.22;4947816;28;20074;-88
2023/05/09 03:21:30;;;;;;;63.35;26.27;;;;;;;15.72;92.79;100101.78;4918536;28;20134;-88
2023/05/09 03:23:57;;;;;;;56.60;25.35;;;;;;;15.71;92.79;100099.25;4946951;28;20074;-88
2023/05/09 03:26:25;;;;;;;60.90;27.52;;;;;;;15.72;92.87;100098.22;4942866;28;20051;-88
2023/05/09 03:28:53;;;;;;;51.28;24.38;;;;;;;15.72;92.94;100095.56;4949867;28;20094;-88
2023/05/09 03:31:20;;;;;;;55.97;25.45;;;;;;;15.70;93.13;100089.53;4935678;28;20035;-85
2023/05/09 03:33:47;;;;;;;65.30;29.08;;;;;;;15.73;93.31;100089.22;4928558;28;20946;-84
2023/05/09 03:36:14;;;;;;;54.80;24.42;;;;;;;15.72;93.46;100088.38;4927150;28;20090;-84
2023/05/09 03:38:43;;;;;;;51.30;23.88;;;;;;;15.73;93.09;100089.22;4944827;28;20046;-85
2023/05/09 03:41:11;;;;;;;59.08;25.98;;;;;;;15.72;93.03;100080.34;4928640;28;20051;-85
2023/05/09 03:43:38;;;;;;;55.17;24.27;;;;;;;15.71;93.06;100089.38;4915191;28;20122;-85
2023/05/09 03:46:05;;;;;;;57.80;26.15;;;;;;;15.72;93.21;100082.16;4952260;28;20066;-85
2023/05/09 03:48:33;;;;;;;59.80;25.05;;;;;;;15.72;93.37;100082.16;4943224;28;20058;-84
2023/05/09 03:51:01;;;;;;;59.35;26.75;;;;;;;15.72;93.54;100082.16;4934488;28;20787;-85
2023/05/09 03:53:30;;;;;;;60.97;24.98;;;;;;;15.73;93.40;100076.66;4936410;28;20444;-84
2023/05/09 03:55:57;;;;;;;62.38;27.42;;;;;;;15.74;93.64;100085.53;4929434;28;20110;-84
2023/05/09 03:58:25;;;;;;;58.20;25.58;;;;;;;15.72;93.80;100087.53;4931812;28;20592;-84
2023/05/09 04:00:52;;;;;;;61.22;26.15;;;;;;;15.74;93.49;100085.53;4915127;28;20047;-85
2023/05/09 04:03:21;;;;;;;66.55;24.58;;;;;;;15.73;93.63;100089.22;4945872;28;20046;-84
2023/05/09 04:05:50;;;;;;;56.60;23.92;;;;;;;15.73;93.68;100091.91;4937646;28;20089;-84
2023/05/09 04:08:26;;;;;;;60.58;25.88;;;;;;;15.73;93.93;100089.22;4914000;28;20062;-85
2023/05/09 04:10:53;;;;;;;61.22;26.83;;;;;;;15.73;94.14;100092.72;4948058;28;20057;-84
2023/05/09 04:13:20;;;;;;;63.17;26.02;;;;;;;15.73;94.32;100089.22;4930529;28;20052;-85
2023/05/09 04:15:47;;;;;;;57.65;25.23;;;;;;;15.74;94.35;100085.53;4946188;28;20839;-84
2023/05/09 04:18:14;;;;;;;57.97;25.80;;;;;;;15.72;94.32;100088.38;4948148;28;20047;-84
2023/05/09 04:20:41;;;;;;;50.30;24.60;;;;;;;15.72;94.19;100079.50;4916067;28;20047;-85
2023/05/09 04:23:08;;;;;;;54.88;24.45;;;;;;;15.71;94.11;100081.34;4945342;28;20125;-85
2023/05/09 04:25:36;;;;;;;54.95;24.00;;;;;;;15.71;94.19;100081.34;4915113;28;20047;-85
2023/05/09 04:28:03;;;;;;;52.95;24.90;;;;;;;15.71;94.27;100081.34;4929510;28;20079;-85
2023/05/09 04:30:30;;;;;;;52.30;24.58;;;;;;;15.72;94.20;100084.84;4928473;28;20257;-85
2023/05/09 04:32:57;;;;;;;59.25;23.92;;;;;;;15.71;94.11;100081.34;4928151;28;20051;-85
2023/05/09 04:35:26;;;;;;;54.00;24.38;;;;;;;15.71;94.18;100085.88;4951388;28;20049;-85
2023/05/09 04:37:53;;;;;;;55.95;24.48;;;;;;;15.72;94.24;100076.81;4932992;28;20056;-85
2023/05/09 04:40:21;;;;;;;55.90;24.20;;;;;;;15.72;94.22;100083.03;4930745;28;20090;-85
2023/05/09 04:42:56;;;;;;;64.72;25.02;;;;;;;15.72;94.38;100084.84;4933201;28;20160;-84
2023/05/09 04:45:25;;;;;;;65.45;26.10;;;;;;;15.71;94.72;100092.03;4945069;28;20047;-84
2023/05/09 04:47:53;;;;;;;50.75;24.88;;;;;;;15.71;94.68;100089.38;4928790;28;20451;-84
2023/05/09 04:50:19;;;;;;;52.30;23.42;;;;;;;15.71;94.90;100089.38;4947552;28;20455;-84
2023/05/09 04:52:46;;;;;;;52.67;25.20;;;;;;;15.72;94.45;100090.19;4929671;28;20043;-85
2023/05/09 04:55:13;;;;;;;50.17;24.08;;;;;;;15.72;94.58;100076.81;4925379;28;20090;-84
2023/05/09 04:57:44;;;;;;;54.10;24.55;;;;;;;15.72;94.69;100082.16;4953946;28;20059;-83
2023/05/09 05:00:11;;;;;;;48.47;24.30;;;;;;;15.73;94.82;100081.19;4928736;28;20043;-84
2023/05/09 05:02:39;;;;;;;49.70;23.17;;;;;;;15.72;94.93;100082.16;4933420;28;20073;-84
2023/05/09 05:05:06;;;;;;;54.67;24.95;;;;;;;15.71;95.01;100077.84;4944052;28;20631;-85
2023/05/09 05:07:41;;;;;;;61.30;24.58;;;;;;;15.72;95.11;100082.16;4930034;28;20054;-85
2023/05/09 05:10:09;;;;;;;55.60;25.08;;;;;;;15.71;95.05;100081.34;4944501;28;20078;-85
2023/05/09 05:12:38;;;;;;;59.15;24.73;;;;;;;15.71;95.09;100077.84;4917244;28;20590;-84
2023/05/09 05:15:09;;;;;;;54.20;24.88;;;;;;;15.71;95.38;100078.66;4950134;28;20046;-83
2023/05/09 05:17:36;;;;;;;62.67;26.85;;;;;;;15.72;95.51;100079.50;4948290;28;20518;-84
2023/05/09 05:20:07;;;;;;;66.25;27.40;;;;;;;15.73;95.64;100081.19;4947310;28;20522;-84
2023/05/09 05:22:34;;;;;;;59.35;27.45;;;;;;;15.74;96.14;100085.53;4950323;28;21143;-84
2023/05/09 05:25:03;;;;;;;68.45;27.25;;;;;;;15.73;96.08;100075.84;4951732;28;20498;-83
2023/05/09 05:27:31;;;;;;;63.70;27.20;;;;;;;15.74;96.09;100070.28;4916426;28;20043;-83
2023/05/09 05:29:58;;;;;;;62.53;26.67;;;;;;;15.75;96.04;100066.63;4966652;28;20056;-82
2023/05/09 05:32:25;;;;;;;58.05;27.25;;;;;;;15.76;96.25;100067.47;4941077;28;20142;-83
2023/05/09 05:34:52;;;;;;;66.47;28.88;;;;;;;15.76;96.33;100065.63;4932927;28;20047;-83
2023/05/09 05:37:19;;;;;;;58.90;25.90;;;;;;;15.77;96.41;100074.50;4935821;28;20138;-82
2023/05/09 05:39:46;;;;;;;64.20;27.35;;;;;;;15.77;96.43;100070.00;4935727;28;20138;-82
2023/05/09 05:42:13;;;;;;;63.92;27.25;;;;;;;15.77;96.81;100064.63;4915869;28;20077;-82
2023/05/09 05:44:40;;;;;;;62.88;27.40;;;;;;;15.78;96.46;100068.16;4933431;28;20158;-85
2023/05/09 05:47:07;;;;;;;60.20;26.48;;;;;;;15.78;96.68;100063.63;4935792;28;20050;-82
2023/05/09 05:49:34;;;;;;;63.22;27.35;;;;;;;15.80;96.82;100058.13;4946900;28;20047;-82
2023/05/09 05:52:01;;;;;;;57.20;26.63;;;;;;;15.82;96.87;100062.31;4935698;28;20070;-83
2023/05/09 05:54:28;;;;;;;56.38;26.33;;;;;;;15.84;97.03;100064.81;4934153;28;20130;-83
2023/05/09 05:56:55;;;;;;;55.78;24.90;;;;;;;15.85;97.25;100058.47;4931617;28;20093;-84
2023/05/09 05:59:22;;;;;;;61.00;26.48;;;;;;;15.85;97.51;100047.75;4920477;28;20047;-84
2023/05/09 06:01:50;;;;;;;60.13;26.50;;;;;;;15.89;97.53;100050.94;4952216;28;20468;-84
2023/05/09 06:04:16;;;;;;;61.53;28.58;;;;;;;15.89;97.53;100053.59;4925052;28;20127;-82
2023/05/09 06:06:44;;;;;;;58.47;25.95;;;;;;;15.90;97.61;100041.88;4933557;28;20086;-83
2023/05/09 06:09:11;;;;;;;63.60;26.90;;;;;;;15.92;97.27;100042.56;4950734;28;20055;-83
2023/05/09 06:11:38;;;;;;;59.28;25.55;;;;;;;15.94;97.19;100041.38;4927260;28;20051;-84
2023/05/09 06:14:04;;;;;;;67.60;29.27;;;;;;;15.96;96.96;100041.25;4950311;28;20139;-83
2023/05/09 06:16:31;;;;;;;63.75;28.73;;;;;;;15.97;96.91;100043.72;4948684;28;20055;-84
2023/05/09 06:18:58;;;;;;;62.15;29.38;;;;;;;16.01;96.66;100046.94;4928313;28;20088;-83
2023/05/09 06:21:25;;;;;;;66.85;29.92;;;;;;;16.01;96.23;100039.72;4953082;28;20055;-82
2023/05/09 06:23:52;;;;;;;61.25;28.13;;;;;;;16.04;96.49;100043.91;4951481;28;20138;-83
2023/05/09 06:26:21;;;;;;;63.45;29.15;;;;;;;16.05;96.11;100040.22;4907424;28;20099;-84
2023/05/09 06:28:48;;;;;;;67.18;30.50;;;;;;;16.05;96.18;100041.09;4922482;28;20514;-82
2023/05/09 06:31:15;;;;;;;65.50;28.42;;;;;;;16.09;95.86;100043.41;4945047;28;20042;-83
2023/05/09 06:33:42;;;;;;;70.78;31.50;;;;;;;16.10;95.85;100037.06;4941336;28;20102;-83
2023/05/09 06:36:08;;;;;;;67.75;29.73;;;;;;;16.10;95.72;100042.41;4965541;28;20047;-83
2023/05/09 06:38:35;;;;;;;66.95;30.33;;;;;;;16.10;95.47;100037.06;4919888;28;20054;-84
2023/05/09 06:41:02;;;;;;;60.83;27.50;;;;;;;16.08;95.23;100034.56;4952682;28;20043;-83
2023/05/09 06:43:28;;;;;;;60.88;27.55;;;;;;;16.10;95.30;100037.88;4932703;28;20520;-83
2023/05/09 06:45:55;;;;;;;60.85;28.10;;;;;;;16.08;94.82;100029.19;4931293;28;20039;-83
2023/05/09 06:48:25;;;;;;;63.53;28.15;;;;;;;16.10;94.88;100029.84;4917064;28;20126;-83
2023/05/09 06:50:52;;;;;;;62.25;27.63;;;;;;;16.10;94.66;100027.16;4937559;28;20047;-84
2023/05/09 06:53:19;;;;;;;63.05;28.38;;;;;;;16.11;94.39;100026.19;4931000;28;20058;-84
2023/05/09 06:55:46;;;;;;;61.30;27.58;;;;;;;16.14;94.72;100023.16;4949625;28;20058;-84
2023/05/09 06:58:12;;;;;;;61.10;26.80;;;;;;;16.17;94.55;100022.00;4936276;28;20073;-84
2023/05/09 07:00:39;;;;;;;60.53;26.35;;;;;;;16.17;94.50;100022.00;4949612;28;20048;-84
2023/05/09 07:03:06;;;;;;;61.58;27.75;;;;;;;16.17;94.48;100020.13;4915144;28;20043;-83
2023/05/09 07:05:33;;;;;;;61.95;26.30;;;;;;;16.17;93.81;100014.78;4948900;28;20491;-84
2023/05/09 07:08:00;;;;;;;65.95;27.25;;;;;;;16.17;93.17;100013.94;4913824;28;20479;-84
2023/05/09 07:10:27;;;;;;;66.68;28.58;;;;;;;16.17;92.95;100008.59;4931608;28;20047;-83
2023/05/09 07:12:54;;;;;;;68.68;27.85;;;;;;;16.16;93.00;100010.44;4926900;28;20082;-84
2023/05/09 07:15:21;;;;;;;66.10;29.55;;;;;;;16.17;93.79;100001.38;4928744;28;20051;-84
2023/05/09 07:18:06;;;;;;;61.92;27.85;;;;;;;16.18;94.23;100010.25;4930838;28;20053;-84
2023/05/09 07:20:33;;;;;;;58.40;26.17;;;;;;;16.18;93.55;100010.25;4957947;28;20043;-84
2023/05/09 07:23:02;;;;;;;67.30;29.42;;;;;;;16.18;93.43;100005.75;4947334;28;20142;-83
2023/05/09 07:25:29;;;;;;;67.05;30.00;;;;;;;16.20;94.11;100010.94;4902603;28;20039;-84
2023/05/09 07:27:56;;;;;;;64.80;28.92;;;;;;;16.21;93.82;100001.91;4964864;28;20059;-84
2023/05/09 07:30:23;;;;;;;70.32;28.42;;;;;;;16.21;93.57;99997.38;4935189;28;20495;-86
2023/05/09 07:32:50;;;;;;;66.28;29.17;;;;;;;16.23;93.63;99990.00;4950606;28;20550;-83
2023/05/09 07:35:18;;;;;;;69.68;29.77;;;;;;;16.27;93.17;99998.53;4962062;28;20051;-85
2023/05/09 07:37:45;;;;;;;65.43;29.67;;;;;;;16.29;93.00;99985.81;4963835;28;20414;-85
2023/05/09 07:40:12;;;;;;;66.75;29.95;;;;;;;16.31;93.76;99977.59;4947477;28;20618;-85
2023/05/09 07:42:39;;;;;;;66.88;28.63;;;;;;;16.38;93.34;99976.75;4947990;28;20825;-84
2023/05/09 07:45:06;;;;;;;69.55;29.25;;;;;;;16.41;93.53;99968.38;4951318;28;20039;-85
2023/05/09 07:47:33;;;;;;;63.28;28.88;;;;;;;16.46;93.32;99967.84;4948933;28;20114;-85
2023/05/09 07:50:00;;;;;;;70.82;27.95;;;;;;;16.52;92.91;99961.00;4937768;28;24757;-83
2023/05/09 07:52:26;;;;;;;63.78;28.95;;;;;;;16.54;92.82;99954.44;4927287;28;20057;-85
2023/05/09 07:54:53;;;;;;;67.18;30.60;;;;;;;16.59;92.38;99952.09;4935658;28;20070;-85
2023/05/09 07:57:20;;;;;;;71.57;31.55;;;;;;;16.63;91.75;99953.41;4946265;28;20047;-83
2023/05/09 07:59:47;;;;;;;72.70;31.55;;;;;;;16.64;91.66;99939.00;4898271;28;20047;-85
2023/05/09 08:02:13;;;;;;;67.35;28.20;;;;;;;16.67;91.75;99938.66;4932735;28;20066;-84
2023/05/09 08:04:40;;;;;;;69.43;30.33;;;;;;;16.71;91.71;99940.00;4947319;28;20166;-85
2023/05/09 08:07:07;;;;;;;61.90;28.38;;;;;;;16.75;91.49;99937.78;4950652;28;20384;-85
2023/05/09 08:09:35;;;;;;;67.95;29.35;;;;;;;16.79;91.94;99938.31;4944071;28;20510;-84
2023/05/09 08:12:01;;;;;;;63.47;28.88;;;;;;;16.84;91.65;99927.88;4927041;28;20455;-85
2023/05/09 08:14:28;;;;;;;61.38;27.60;;;;;;;16.87;91.88;99927.56;4912087;28;20102;-85
2023/05/09 08:16:55;;;;;;;62.63;27.48;;;;;;;16.91;92.33;99920.81;4932456;28;20069;-84
2023/05/09 08:19:24;;;;;;;66.68;28.92;;;;;;;16.91;92.25;99921.66;4930803;28;20380;-85
2023/05/09 08:21:52;;;;;;;63.45;28.98;;;;;;;16.91;91.44;99923.50;4942255;28;20057;-85
2023/05/09 08:24:19;;;;;;;62.92;26.40;;;;;;;16.90;91.14;99922.69;4948194;28;20043;-85
2023/05/09 08:26:45;;;;;;;66.85;29.27;;;;;;;16.95;91.21;99918.66;4963518;28;20119;-85
2023/05/09 08:29:12;;;;;;;71.47;29.17;;;;;;;16.96;91.12;99913.09;4948724;28;20039;-84
2023/05/09 08:31:39;;;;;;;62.70;28.17;;;;;;;17.00;90.92;99910.91;4931233;28;20047;-82
2023/05/09 08:34:06;;;;;;;60.85;28.83;;;;;;;17.02;90.96;99904.34;4951889;28;20066;-82
2023/05/09 08:36:33;;;;;;;56.08;24.98;;;;;;;17.02;90.48;99903.50;4955325;28;20047;-83
2023/05/09 08:39:00;;;;;;;57.97;25.73;;;;;;;17.03;90.32;99895.28;4933419;28;20047;-83
2023/05/09 08:41:27;;;;;;;66.55;27.95;;;;;;;17.05;89.67;99887.91;4934820;28;20066;-83
2023/05/09 08:43:54;;;;;;;69.28;29.05;;;;;;;17.06;89.34;99886.88;4954736;28;20051;-85
2023/05/09 08:46:27;;;;;;;66.82;28.98;;;;;;;17.07;89.32;99879.66;4947532;28;20058;-84
2023/05/09 08:48:54;;;;;;;66.65;29.02;;;;;;;17.13;89.78;99882.47;4966691;28;20050;-84
2023/05/09 08:51:21;;;;;;;62.47;26.70;;;;;;;17.16;89.03;99877.78;4936956;28;20131;-84
2023/05/09 08:53:47;;;;;;;63.50;27.00;;;;;;;17.22;88.83;99877.06;4947487;28;20046;-84
2023/05/09 08:56:14;;;;;;;64.45;28.42;;;;;;;17.26;88.10;99862.28;4963856;28;20042;-84
2023/05/09 08:58:41;;;;;;;67.80;28.35;;;;;;;17.35;88.15;99871.94;4928216;28;20047;-83
2023/05/09 09:01:09;;;;;;;61.63;27.75;;;;;;;17.38;87.49;99876.97;4944677;28;20047;-83
2023/05/09 09:03:37;;;;;;;58.30;27.08;;;;;;;17.44;86.97;99872.72;4934823;28;20089;-85
2023/05/09 09:06:06;;;;;;;56.25;24.33;;;;;;;17.47;87.13;99869.66;4952278;28;20054;-84
2023/05/09 09:08:34;;;;;;;60.15;28.50;;;;;;;17.52;87.62;99864.59;4917279;28;20114;-84
2023/05/09 09:11:01;;;;;;;64.43;28.25;;;;;;;17.56;86.84;99864.06;4950396;28;20061;-85
2023/05/09 09:13:28;;;;;;;59.72;27.58;;;;;;;17.64;86.98;99865.03;4932905;28;20133;-82
2023/05/09 09:15:57;;;;;;;50.25;23.27;;;;;;;17.62;86.41;99851.75;4957674;28;20426;-86
2023/05/09 09:18:28;;;;;;;54.92;24.65;;;;;;;17.64;86.42;99849.72;4944767;28;20070;-85
2023/05/09 09:20:58;;;;;;;53.20;22.73;;;;;;;17.70;86.83;99843.63;4936471;28;20079;-85
2023/05/09 09:23:26;;;;;;;56.33;26.98;;;;;;;17.74;86.57;99839.56;4947837;28;20406;-85
2023/05/09 09:26:00;;;;;;;45.92;22.85;;;;;;;17.76;86.22;99828.66;4935443;28;20051;-84
2023/05/09 09:28:27;;;;;;;57.72;26.75;;;;;;;17.81;86.25;99828.97;4934040;28;20043;-85
2023/05/09 09:30:54;;;;;;;49.65;22.60;;;;;;;17.83;86.20;99821.53;4943334;28;20494;-85
2023/05/09 09:33:21;;;;;;;44.28;20.35;;;;;;;17.88;85.69;99821.81;4955276;28;20078;-85
2023/05/09 09:35:49;;;;;;;52.10;25.55;;;;;;;17.92;85.42;99820.47;4947027;28;20045;-84
2023/05/09 09:38:18;;;;;;;51.10;25.63;;;;;;;17.96;85.70;99805.66;4949309;28;20097;-85
2023/05/09 09:40:51;;;;;;;52.70;22.90;;;;;;;17.96;84.97;99805.66;4939137;28;20054;-86
2023/05/09 09:43:18;;;;;;;48.88;23.98;;;;;;;18.03;85.48;99803.03;4946958;28;20090;-84
2023/05/09 09:45:49;;;;;;;51.78;23.33;;;;;;;18.03;85.19;99800.34;4945397;28;20071;-85
2023/05/09 09:48:15;;;;;;;48.70;22.35;;;;;;;18.07;85.44;99792.78;4964289;28;20506;-85
2023/05/09 09:50:42;;;;;;;52.63;25.33;;;;;;;18.10;85.23;99795.91;4964611;28;20043;-85
2023/05/09 09:53:09;;;;;;;36.90;20.08;;;;;;;18.11;84.55;99788.69;4934593;28;20043;-84
2023/05/09 09:55:36;;;;;;;49.25;24.25;;;;;;;18.13;84.11;99783.97;4965674;28;20066;-85
2023/05/09 09:58:15;;;;;;;42.33;20.27;;;;;;;18.06;83.22;99775.78;4898023;28;20058;-84
2023/05/09 10:00:42;;;;;;;40.20;18.40;;;;;;;18.15;84.07;99776.56;4934035;28;20047;-83
2023/05/09 10:03:15;;;;;;;36.95;18.50;;;;;;;18.12;83.30;99775.06;4932315;28;20047;-84
2023/05/09 10:05:42;;;;;;;38.85;19.83;;;;;;;18.17;83.51;99772.66;4947305;28;20051;-85
2023/05/09 10:08:08;;;;;;;44.63;21.65;;;;;;;18.21;83.48;99767.72;4935668;28;20047;-84
2023/05/09 10:10:36;;;;;;;43.13;21.88;;;;;;;18.23;82.69;99760.31;4936188;28;20058;-86
2023/05/09 10:13:09;;;;;;;39.00;18.42;;;;;;;18.21;81.53;99756.97;4926810;28;20055;-84
2023/05/09 10:15:36;;;;;;;46.35;21.13;;;;;;;18.31;82.90;99754.00;4944056;28;20873;-84
2023/05/09 10:18:27;;;;;;;44.78;21.30;;;;;;;18.33;81.38;99746.59;4949065;28;20054;-84
2023/05/09 10:20:56;;;;;;;40.33;19.38;;;;;;;18.35;81.38;99737.31;4928941;28;20040;-86
2023/05/09 10:23:23;;;;;;;43.53;19.02;;;;;;;18.39;81.65;99733.25;4967366;28;20050;-84
2023/05/09 10:25:59;;;;;;;47.55;22.27;;;;;;;18.39;80.61;99730.56;4947890;28;20059;-86
2023/05/09 10:28:30;;;;;;;36.65;18.90;;;;;;;18.40;80.88;99729.53;4927500;28;20048;-86
2023/05/09 10:31:11;;;;;;;41.65;19.80;;;;;;;18.43;80.38;99725.63;4950298;28;20509;-86
2023/05/09 10:33:47;;;;;;;36.83;18.83;;;;;;;18.43;80.10;99717.56;4929999;28;20127;-85
2023/05/09 10:36:17;;;;;;;34.95;17.33;;;;;;;18.50;80.66;99712.25;4948789;28;20411;-86
2023/05/09 10:38:44;;;;;;;44.88;20.70;;;;;;;18.51;80.15;99703.16;4928916;28;20106;-84
2023/05/09 10:41:11;;;;;;;40.28;19.17;;;;;;;18.50;79.57;99705.03;4945482;28;20075;-84
2023/05/09 10:43:37;;;;;;;43.55;20.25;;;;;;;18.53;79.33;99707.31;4947771;28;20043;-87
2023/05/09 10:46:05;;;;;;;37.33;17.30;;;;;;;18.57;80.05;99699.69;4954883;28;20450;-87
2023/05/09 10:48:38;;;;;;;40.97;19.70;;;;;;;18.58;80.88;99693.31;4919969;28;20047;-87
2023/05/09 10:51:09;;;;;;;38.40;19.40;;;;;;;18.65;80.27;99696.91;4926961;28;20062;-84
2023/05/09 10:53:42;;;;;;;35.33;18.20;;;;;;;18.66;79.65;99677.03;4928871;28;20097;-85
2023/05/09 10:56:38;;;;;;;32.00;17.13;;;;;;;18.64;78.75;99673.72;4940018;28;20424;-84
2023/05/09 10:59:05;;;;;;;36.10;18.98;;;;;;;18.75;79.77;99675.03;4942750;28;20118;-84
2023/05/09 11:01:35;;;;;;;31.80;16.48;;;;;;;18.78;78.87;99670.16;4947851;28;20102;-86
2023/05/09 11:04:09;;;;;;;35.63;17.75;;;;;;;18.77;79.30;99662.28;4918821;28;20046;-85
2023/05/09 11:06:50;;;;;;;39.28;18.58;;;;;;;18.76;78.75;99661.44;4936552;28;20076;-84
2023/05/09 11:09:27;;;;;;;31.92;16.08;;;;;;;18.80;78.85;99646.59;4956768;28;20510;-86
2023/05/09 11:12:03;;;;;;;32.50;17.95;;;;;;;18.80;78.43;99646.59;4932645;28;20503;-85
2023/05/09 11:14:31;;;;;;;35.88;19.48;;;;;;;18.88;78.98;99642.94;4952454;28;20158;-84
2023/05/09 11:17:08;;;;;;;28.48;15.63;;;;;;;18.86;78.07;99639.59;4942055;28;20162;-86
2023/05/09 11:19:57;;;;;;;36.50;16.92;;;;;;;18.82;77.89;99635.63;4949326;28;20098;-85